createdAt,value
2018-06-27T00:03:20.606Z,99.90
2018-06-27T00:08:16.914Z,99.90
2018-06-27T00:10:45.202Z,99.90
2018-06-27T00:13:13.513Z,99.90
2018-06-27T00:15:41.813Z,99.90
2018-06-27T00:20:38.127Z,99.90
2018-06-27T00:25:34.507Z,99.90
2018-06-27T00:28:02.793Z,99.90
2018-06-27T00:30:31.049Z,99.90
2018-06-27T00:32:59.335Z,99.90
2018-06-27T00:35:27.597Z,99.90
2018-06-27T00:37:55.861Z,99.90
2018-06-27T00:40:24.174Z,99.90
2018-06-27T00:42:52.465Z,99.90
2018-06-27T00:45:20.761Z,99.90
2018-06-27T00:47:49.032Z,99.90
2018-06-27T00:50:17.315Z,99.90
2018-06-27T00:52:45.593Z,99.90
2018-06-27T00:55:13.846Z,99.90
2018-06-27T00:57:42.114Z,99.90
2018-06-27T01:00:10.416Z,99.90
2018-06-27T01:02:38.721Z,99.90
2018-06-27T01:05:07.021Z,99.90
2018-06-27T01:07:35.351Z,99.90
2018-06-27T01:10:03.725Z,99.90
2018-06-27T01:12:31.994Z,99.90
2018-06-27T01:17:28.285Z,99.90
2018-06-27T01:19:56.585Z,99.90
2018-06-27T01:22:24.874Z,99.90
2018-06-27T01:24:53.161Z,99.90
2018-06-27T01:27:21.423Z,99.90
2018-06-27T01:29:49.692Z,99.90
2018-06-27T01:32:17.944Z,99.90
2018-06-27T01:37:14.205Z,99.90
2018-06-27T01:42:10.468Z,99.90
2018-06-27T01:44:38.742Z,99.90
2018-06-27T01:49:35.025Z,99.90
2018-06-27T01:52:03.285Z,99.90
2018-06-27T01:54:31.543Z,99.90
2018-06-27T01:56:59.794Z,99.90
2018-06-27T01:59:28.161Z,99.90
2018-06-27T02:01:56.435Z,99.90
2018-06-27T02:04:24.701Z,99.90
2018-06-27T02:06:52.977Z,99.90
2018-06-27T02:11:49.261Z,99.90
2018-06-27T02:14:17.526Z,99.90
2018-06-27T02:16:45.805Z,99.90
2018-06-27T02:21:42.097Z,99.90
2018-06-27T02:24:10.729Z,99.90
2018-06-27T02:26:39.050Z,99.90
2018-06-27T02:29:07.308Z,99.90
2018-06-27T02:31:35.590Z,99.90
2018-06-27T02:34:03.884Z,99.90
2018-06-27T02:36:32.205Z,99.90
2018-06-27T02:39:00.471Z,99.90
2018-06-27T02:41:28.741Z,99.90
2018-06-27T02:43:57.009Z,99.90
2018-06-27T02:48:53.285Z,99.90
2018-06-27T02:51:21.563Z,99.90
2018-06-27T02:53:49.827Z,99.90
2018-06-27T02:58:46.104Z,99.90
2018-06-27T03:01:14.391Z,99.90
2018-06-27T03:03:42.861Z,99.90
2018-06-27T03:06:11.172Z,99.90
2018-06-27T03:08:39.491Z,99.90
2018-06-27T03:11:07.803Z,99.90
2018-06-27T03:16:04.216Z,99.90
2018-06-27T03:18:32.506Z,99.90
2018-06-27T03:21:00.779Z,99.90
2018-06-27T03:23:29.047Z,99.90
2018-06-27T03:25:57.467Z,99.90
2018-06-27T03:28:25.758Z,99.90
2018-06-27T03:30:54.027Z,99.90
2018-06-27T03:33:22.283Z,99.90
2018-06-27T03:35:50.586Z,99.90
2018-06-27T03:38:18.959Z,99.90
2018-06-27T03:40:47.259Z,99.90
2018-06-27T03:43:15.522Z,99.90
2018-06-27T03:45:43.796Z,99.90
2018-06-27T03:48:12.073Z,99.90
2018-06-27T03:50:40.360Z,99.90
2018-06-27T03:53:08.611Z,99.90
2018-06-27T03:55:36.970Z,99.90
2018-06-27T03:58:05.259Z,99.90
2018-06-27T04:00:33.522Z,99.90
2018-06-27T04:03:01.836Z,99.90
2018-06-27T04:07:58.124Z,99.90
2018-06-27T04:10:26.380Z,99.90
2018-06-27T04:12:54.724Z,99.90
2018-06-27T04:15:22.972Z,99.90
2018-06-27T04:17:52.321Z,99.90
2018-06-27T04:20:20.597Z,99.90
2018-06-27T04:22:48.912Z,99.90
2018-06-27T04:25:17.197Z,99.90
2018-06-27T04:32:41.530Z,99.90
2018-06-27T04:40:05.910Z,99.90
2018-06-27T04:42:34.196Z,99.90
2018-06-27T04:45:02.476Z,99.90
2018-06-27T04:47:30.754Z,99.90
2018-06-27T04:49:59.073Z,99.90
2018-06-27T04:52:27.356Z,99.90
2018-06-27T04:54:55.702Z,99.90
2018-06-27T04:57:23.902Z,99.90
2018-06-27T04:59:52.167Z,99.90
2018-06-27T05:02:20.436Z,99.90
2018-06-27T05:04:48.728Z,99.90
2018-06-27T05:07:17.108Z,99.90
2018-06-27T05:09:45.401Z,99.90
2018-06-27T05:12:13.668Z,99.90
2018-06-27T05:14:41.948Z,99.90
2018-06-27T05:17:10.248Z,99.90
2018-06-27T05:19:41.097Z,99.90
2018-06-27T05:22:09.445Z,99.90
2018-06-27T05:24:37.716Z,99.90
2018-06-27T05:27:06.223Z,99.90
2018-06-27T05:29:34.506Z,99.90
2018-06-27T05:32:02.861Z,99.90
2018-06-27T05:36:59.245Z,99.90
2018-06-27T05:39:27.504Z,99.90
2018-06-27T05:41:55.786Z,99.90
2018-06-27T05:44:24.059Z,99.90
2018-06-27T05:46:52.352Z,99.90
2018-06-27T05:49:20.632Z,99.90
2018-06-27T05:54:16.890Z,99.90
2018-06-27T05:56:45.149Z,99.90
2018-06-27T05:59:13.430Z,99.90
2018-06-27T06:01:41.714Z,99.90
2018-06-27T06:04:10.019Z,99.90
2018-06-27T06:09:09.320Z,99.90
2018-06-27T06:11:37.706Z,99.90
2018-06-27T06:14:06.054Z,99.90
2018-06-27T06:16:34.576Z,99.90
2018-06-27T06:19:02.895Z,99.90
2018-06-27T06:21:31.153Z,99.90
2018-06-27T06:23:59.403Z,99.90
2018-06-27T06:26:27.689Z,99.90
2018-06-27T06:28:55.968Z,99.90
2018-06-27T06:31:24.281Z,99.90
2018-06-27T06:33:52.555Z,99.90
2018-06-27T06:36:20.861Z,99.90
2018-06-27T06:41:17.140Z,99.90
2018-06-27T06:43:45.445Z,99.90
2018-06-27T06:46:13.856Z,99.90
2018-06-27T06:48:42.140Z,99.90
2018-06-27T06:51:10.407Z,99.90
2018-06-27T06:53:38.681Z,99.90
2018-06-27T06:56:06.993Z,99.90
2018-06-27T06:58:35.276Z,99.90
2018-06-27T07:01:03.609Z,99.90
2018-06-27T07:03:31.887Z,99.90
2018-06-27T07:06:00.184Z,99.90
2018-06-27T07:08:28.493Z,99.90
2018-06-27T07:10:56.915Z,99.90
2018-06-27T07:13:25.172Z,99.90
2018-06-27T07:15:53.555Z,99.90
2018-06-27T07:18:21.834Z,99.90
2018-06-27T07:20:50.176Z,99.90
2018-06-27T07:23:18.444Z,99.90
2018-06-27T07:25:46.721Z,99.90
2018-06-27T07:28:15.013Z,99.90
2018-06-27T07:30:43.399Z,99.90
2018-06-27T07:33:11.695Z,99.90
2018-06-27T07:35:40.210Z,99.60
2018-06-27T07:38:08.477Z,99.90
2018-06-27T07:40:36.745Z,99.60
2018-06-27T07:43:05.119Z,99.90
2018-06-27T07:45:33.423Z,99.90
2018-06-27T07:48:01.707Z,99.90
2018-06-27T07:50:29.992Z,99.90
2018-06-27T07:55:26.288Z,99.90
2018-06-27T07:57:54.608Z,99.90
2018-06-27T08:00:22.880Z,99.90
2018-06-27T08:02:51.133Z,99.90
2018-06-27T08:05:19.397Z,99.90
2018-06-27T08:07:47.688Z,99.90
2018-06-27T08:10:16.078Z,99.90
2018-06-27T08:12:44.332Z,99.90
2018-06-27T08:15:12.701Z,99.90
2018-06-27T08:17:40.982Z,99.90
2018-06-27T08:20:09.358Z,99.90
2018-06-27T08:22:37.641Z,99.90
2018-06-27T08:25:05.920Z,99.60
2018-06-27T08:27:34.229Z,98.70
2018-06-27T08:30:02.517Z,98.60
2018-06-27T08:32:31.057Z,98.40
2018-06-27T08:34:59.321Z,96.70
2018-06-27T08:39:56.073Z,97.40
2018-06-27T08:42:24.408Z,98.00
2018-06-27T08:44:52.693Z,97.00
2018-06-27T08:47:20.995Z,98.00
2018-06-27T08:49:49.430Z,97.80
2018-06-27T08:52:17.712Z,96.00
2018-06-27T08:54:46.544Z,96.50
2018-06-27T08:57:16.600Z,95.40
2018-06-27T08:59:44.924Z,93.10
2018-06-27T09:02:13.238Z,94.70
2018-06-27T09:04:41.616Z,94.30
2018-06-27T09:07:10.338Z,94.10
2018-06-27T09:09:38.978Z,92.10
2018-06-27T09:12:07.314Z,94.70
2018-06-27T09:14:35.618Z,91.70
2018-06-27T09:17:04.016Z,91.90
2018-06-27T09:22:00.580Z,92.20
2018-06-27T09:29:24.989Z,88.80
2018-06-27T09:31:53.302Z,90.70
2018-06-27T09:34:21.584Z,91.50
2018-06-27T09:39:17.944Z,90.10
2018-06-27T09:44:14.256Z,85.80
2018-06-27T09:46:42.584Z,84.90
2018-06-27T09:51:38.864Z,87.30
2018-06-27T09:54:07.190Z,87.30
2018-06-27T09:56:35.484Z,88.70
2018-06-27T09:59:03.812Z,85.60
2018-06-27T10:01:32.130Z,88.60
2018-06-27T10:04:00.422Z,85.60
2018-06-27T10:06:28.700Z,86.00
2018-06-27T10:08:56.988Z,82.40
2018-06-27T10:11:25.258Z,86.90
2018-06-27T10:13:53.630Z,88.60
2018-06-27T10:16:21.920Z,88.30
2018-06-27T10:18:50.221Z,85.00
2018-06-27T10:21:18.516Z,82.10
2018-06-27T10:23:46.825Z,83.30
2018-06-27T10:26:15.107Z,84.50
2018-06-27T10:28:43.437Z,83.80
2018-06-27T10:31:11.708Z,81.60
2018-06-27T10:33:39.996Z,84.60
2018-06-27T10:36:08.305Z,83.90
2018-06-27T10:38:36.579Z,82.20
2018-06-27T10:41:04.898Z,80.30
2018-06-27T10:46:02.066Z,82.50
2018-06-27T10:48:30.353Z,84.80
2018-06-27T10:50:58.640Z,80.10
2018-06-27T10:53:26.969Z,75.80
2018-06-27T10:55:55.248Z,69.80
2018-06-27T10:58:23.513Z,70.70
2018-06-27T11:00:51.844Z,70.70
2018-06-27T11:03:20.172Z,72.50
2018-06-27T11:05:48.555Z,76.20
2018-06-27T11:08:16.962Z,76.80
2018-06-27T11:10:45.324Z,68.90
2018-06-27T11:13:13.664Z,70.90
2018-06-27T11:15:41.966Z,69.90
2018-06-27T11:20:38.287Z,71.30
2018-06-27T11:23:06.562Z,70.60
2018-06-27T11:25:34.857Z,69.40
2018-06-27T11:28:03.177Z,68.50
2018-06-27T11:32:59.501Z,71.30
2018-06-27T11:35:27.780Z,68.20
2018-06-27T11:37:56.066Z,70.80
2018-06-27T11:40:24.417Z,63.70
2018-06-27T11:42:52.747Z,63.20
2018-06-27T11:45:21.028Z,61.80
2018-06-27T11:47:49.322Z,62.10
2018-06-27T11:50:17.635Z,61.60
2018-06-27T11:52:46.161Z,60.60
2018-06-27T11:55:14.483Z,56.80
2018-06-27T11:57:44.148Z,57.70
2018-06-27T12:00:12.519Z,60.10
2018-06-27T12:02:40.828Z,62.00
2018-06-27T12:05:09.835Z,57.70
2018-06-27T12:07:38.293Z,59.00
2018-06-27T12:10:06.660Z,59.70
2018-06-27T12:12:34.945Z,62.20
2018-06-27T12:15:03.249Z,61.70
2018-06-27T12:17:31.761Z,61.40
2018-06-27T12:20:00.072Z,59.30
2018-06-27T12:22:28.310Z,62.10
2018-06-27T12:24:56.652Z,61.00
2018-06-27T12:27:24.920Z,60.90
2018-06-27T12:29:53.220Z,57.50
2018-06-27T12:32:21.585Z,59.90
2018-06-27T12:37:17.869Z,59.70
2018-06-27T12:39:46.169Z,61.50
2018-06-27T12:42:14.511Z,60.10
2018-06-27T12:44:42.841Z,59.90
2018-06-27T12:47:11.148Z,61.60
2018-06-27T12:49:39.510Z,60.30
2018-06-27T12:52:07.789Z,61.90
2018-06-27T12:54:36.067Z,61.50
2018-06-27T12:57:04.395Z,61.10
2018-06-27T13:02:00.676Z,61.20
2018-06-27T13:04:28.975Z,62.20
2018-06-27T13:06:57.257Z,60.60
2018-06-27T13:09:25.561Z,61.10
2018-06-27T13:11:54.041Z,60.00
2018-06-27T13:14:22.383Z,59.70
2018-06-27T13:19:18.725Z,59.80
2018-06-27T13:21:47.045Z,58.70
2018-06-27T13:24:15.355Z,58.30
2018-06-27T13:26:43.677Z,60.80
2018-06-27T13:29:12.009Z,59.70
2018-06-27T13:31:40.299Z,60.40
2018-06-27T13:34:08.591Z,57.70
2018-06-27T13:36:36.879Z,57.60
2018-06-27T13:39:07.669Z,58.30
2018-06-27T13:41:35.956Z,58.10
2018-06-27T13:44:04.371Z,57.40
2018-06-27T13:46:32.735Z,59.50
2018-06-27T13:49:01.067Z,62.50
2018-06-27T13:51:29.389Z,65.20
2018-06-27T13:53:57.677Z,63.90
2018-06-27T13:56:25.957Z,64.70
2018-06-27T13:58:54.252Z,63.10
2018-06-27T14:01:22.593Z,63.50
2018-06-27T14:03:50.895Z,61.90
2018-06-27T14:08:47.449Z,60.00
2018-06-27T14:11:15.711Z,59.20
2018-06-27T14:13:44.013Z,59.90
2018-06-27T14:16:12.309Z,59.80
2018-06-27T14:21:08.685Z,60.20
2018-06-27T14:23:37.113Z,59.40
2018-06-27T14:26:05.668Z,60.90
2018-06-27T14:28:33.972Z,61.60
2018-06-27T14:31:02.386Z,60.30
2018-06-27T14:33:30.717Z,60.60
2018-06-27T14:35:59.013Z,60.10
2018-06-27T14:38:27.285Z,61.80
2018-06-27T14:40:55.589Z,60.70
2018-06-27T14:43:23.866Z,56.80
2018-06-27T14:45:52.177Z,56.30
2018-06-27T14:48:20.443Z,55.70
2018-06-27T14:50:48.739Z,57.00
2018-06-27T14:53:17.077Z,55.70
2018-06-27T14:55:45.379Z,57.30
2018-06-27T14:58:13.683Z,57.40
2018-06-27T15:00:42.094Z,58.60
2018-06-27T15:03:10.369Z,57.90
2018-06-27T15:05:38.643Z,56.30
2018-06-27T15:08:07.268Z,57.90
2018-06-27T15:10:35.555Z,57.50
2018-06-27T15:13:03.884Z,57.20
2018-06-27T15:15:32.166Z,56.80
2018-06-27T15:18:00.459Z,56.30
2018-06-27T15:20:28.758Z,56.40
2018-06-27T15:22:57.063Z,52.60
2018-06-27T15:25:25.490Z,54.10
2018-06-27T15:27:53.795Z,55.00
2018-06-27T15:30:22.130Z,53.40
2018-06-27T15:32:50.614Z,54.20
2018-06-27T15:35:18.993Z,55.90
2018-06-27T15:40:15.332Z,53.20
2018-06-27T15:45:11.627Z,54.60
2018-06-27T15:47:39.896Z,55.30
2018-06-27T15:50:08.170Z,55.30
2018-06-27T15:52:36.628Z,55.00
2018-06-27T15:55:05.058Z,53.60
2018-06-27T15:57:33.359Z,53.00
2018-06-27T16:02:29.658Z,53.70
2018-06-27T16:04:57.968Z,53.20
2018-06-27T16:07:26.328Z,53.60
2018-06-27T16:09:54.640Z,54.80
2018-06-27T16:12:22.935Z,54.20
2018-06-27T16:14:51.220Z,56.50
2018-06-27T16:17:19.762Z,54.60
2018-06-27T16:19:47.853Z,55.10
2018-06-27T16:24:44.562Z,52.70
2018-06-27T16:27:12.963Z,51.30
2018-06-27T16:29:41.272Z,51.70
2018-06-27T16:32:09.651Z,52.00
2018-06-27T16:34:37.960Z,51.90
2018-06-27T16:37:06.266Z,52.80
2018-06-27T16:39:34.530Z,52.90
2018-06-27T16:42:02.813Z,53.50
2018-06-27T16:44:31.156Z,53.80
2018-06-27T16:46:59.594Z,50.80
2018-06-27T16:49:27.893Z,51.10
2018-06-27T16:51:56.285Z,50.60
2018-06-27T16:54:24.736Z,51.30
2018-06-27T16:56:53.086Z,51.00
2018-06-27T16:59:21.348Z,48.90
2018-06-27T17:01:49.704Z,48.10
2018-06-27T17:04:18.083Z,48.20
2018-06-27T17:06:46.419Z,46.70
2018-06-27T17:09:14.694Z,46.70
2018-06-27T17:11:42.968Z,44.60
2018-06-27T17:14:11.261Z,42.90
2018-06-27T17:16:39.590Z,43.10
2018-06-27T17:19:07.984Z,43.30
2018-06-27T17:21:36.183Z,40.10
2018-06-27T17:24:04.491Z,40.30
2018-06-27T17:26:32.796Z,40.50
2018-06-27T17:29:01.082Z,40.70
2018-06-27T17:31:29.461Z,39.50
2018-06-27T17:33:57.758Z,39.70
2018-06-27T17:36:26.068Z,39.20
2018-06-27T17:38:54.359Z,39.50
2018-06-27T17:41:22.663Z,39.10
2018-06-27T17:43:50.960Z,40.00
2018-06-27T17:46:19.274Z,41.10
2018-06-27T17:51:15.592Z,42.90
2018-06-27T17:53:43.914Z,43.10
2018-06-27T17:56:12.184Z,43.60
2018-06-27T18:01:08.522Z,44.80
2018-06-27T18:03:36.816Z,44.50
2018-06-27T18:06:05.196Z,43.40
2018-06-27T18:08:33.482Z,43.20
2018-06-27T18:11:01.897Z,43.70
2018-06-27T18:13:30.209Z,44.10
2018-06-27T18:15:58.481Z,45.00
2018-06-27T18:18:26.809Z,46.70
2018-06-27T18:20:55.108Z,47.20
2018-06-27T18:25:51.479Z,48.70
2018-06-27T18:28:19.761Z,49.10
2018-06-27T18:30:48.093Z,49.60
2018-06-27T18:33:16.599Z,50.20
2018-06-27T18:35:44.907Z,50.80
2018-06-27T18:38:13.362Z,51.50
2018-06-27T18:40:41.801Z,51.80
2018-06-27T18:43:10.121Z,51.60
2018-06-27T18:48:06.520Z,53.90
2018-06-27T18:50:34.832Z,54.90
2018-06-27T18:53:03.150Z,55.10
2018-06-27T18:55:31.529Z,55.30
2018-06-27T18:57:59.887Z,56.30
2018-06-27T19:00:28.240Z,56.20
2018-06-27T19:05:24.615Z,57.20
2018-06-27T19:07:52.957Z,57.90
2018-06-27T19:10:21.713Z,58.70
2018-06-27T19:12:50.142Z,60.20
2018-06-27T19:15:19.063Z,60.80
2018-06-27T19:20:15.407Z,62.30
2018-06-27T19:22:43.751Z,63.10
2018-06-27T19:25:12.069Z,64.00
2018-06-27T19:27:40.405Z,64.70
2018-06-27T19:30:08.709Z,65.10
2018-06-27T19:32:37.102Z,65.60
2018-06-27T19:35:06.051Z,66.60
2018-06-27T19:37:34.497Z,67.70
2018-06-27T19:40:02.835Z,67.40
2018-06-27T19:42:31.116Z,67.80
2018-06-27T19:44:59.522Z,67.80
2018-06-27T19:47:27.900Z,68.40
2018-06-27T19:49:58.140Z,69.00
2018-06-27T19:54:54.534Z,70.40
2018-06-27T19:57:22.897Z,70.60
2018-06-27T19:59:51.206Z,71.30
2018-06-27T20:04:47.596Z,70.80
2018-06-27T20:07:16.009Z,71.80
2018-06-27T20:09:44.386Z,72.30
2018-06-27T20:12:12.666Z,72.50
2018-06-27T20:14:41.087Z,72.50
2018-06-27T20:17:09.366Z,72.50
2018-06-27T20:19:37.687Z,72.70
2018-06-27T20:22:06.150Z,73.70
2018-06-27T20:27:02.504Z,73.90
2018-06-27T20:29:30.823Z,74.60
2018-06-27T20:31:59.174Z,75.10
2018-06-27T20:34:27.500Z,75.00
2018-06-27T20:36:55.835Z,76.20
2018-06-27T20:39:24.190Z,77.20
2018-06-27T20:41:52.606Z,77.50
2018-06-27T20:49:17.081Z,77.30
2018-06-27T20:51:45.401Z,77.10
2018-06-27T20:54:13.784Z,77.00
2018-06-27T20:56:42.033Z,77.40
2018-06-27T20:59:10.325Z,77.50
2018-06-27T21:01:38.731Z,77.40
2018-06-27T21:04:07.033Z,77.60
2018-06-27T21:06:35.349Z,78.20
2018-06-27T21:11:32.381Z,78.80
2018-06-27T21:14:00.663Z,78.90
2018-06-27T21:16:29.015Z,79.40
2018-06-27T21:18:57.316Z,79.80
2018-06-27T21:21:25.662Z,80.60
2018-06-27T21:23:53.941Z,80.80
2018-06-27T21:26:22.253Z,81.20
2018-06-27T21:28:50.577Z,82.10
2018-06-27T21:31:18.944Z,83.10
2018-06-27T21:33:47.252Z,83.80
2018-06-27T21:36:15.565Z,84.30
2018-06-27T21:38:43.851Z,84.60
2018-06-27T21:41:12.171Z,85.50
2018-06-27T21:43:40.458Z,85.90
2018-06-27T21:46:08.766Z,86.20
2018-06-27T21:48:37.069Z,86.70
2018-06-27T21:51:05.394Z,87.40
2018-06-27T21:53:33.687Z,87.20
2018-06-27T21:56:02.001Z,88.80
2018-06-27T21:58:30.318Z,89.30
2018-06-27T22:00:58.617Z,90.10
2018-06-27T22:03:26.988Z,90.20
2018-06-27T22:05:55.360Z,90.40
2018-06-27T22:08:23.687Z,90.60
2018-06-27T22:13:19.981Z,90.50
2018-06-27T22:15:48.273Z,90.80
2018-06-27T22:18:16.909Z,91.00
2018-06-27T22:20:45.204Z,91.30
2018-06-27T22:23:13.481Z,91.30
2018-06-27T22:25:41.766Z,91.60
2018-06-27T22:28:10.049Z,91.90
2018-06-27T22:30:38.957Z,91.80
2018-06-27T22:33:07.478Z,91.90
2018-06-27T22:38:03.824Z,92.00
2018-06-27T22:43:00.315Z,92.60
2018-06-27T22:45:28.685Z,92.60
2018-06-27T22:47:56.974Z,92.90
2018-06-27T22:50:25.384Z,93.10
2018-06-27T22:52:53.668Z,93.70
2018-06-27T22:55:21.979Z,93.60
2018-06-27T22:57:50.293Z,94.00
2018-06-27T23:00:21.576Z,94.00
2018-06-27T23:02:49.885Z,94.30
2018-06-27T23:05:18.175Z,94.40
2018-06-27T23:07:46.489Z,94.70
2018-06-27T23:12:42.866Z,95.20
2018-06-27T23:15:11.161Z,95.60
2018-06-27T23:17:39.469Z,95.70
2018-06-27T23:20:07.844Z,95.60
2018-06-27T23:22:41.889Z,95.80
2018-06-27T23:25:10.215Z,96.10
2018-06-27T23:27:38.595Z,96.20
2018-06-27T23:30:07.536Z,96.40
2018-06-27T23:32:35.873Z,96.70
2018-06-27T23:35:04.287Z,97.00
2018-06-27T23:37:32.583Z,97.00
2018-06-27T23:40:00.867Z,97.20
2018-06-27T23:42:29.400Z,97.50
2018-06-27T23:47:25.699Z,97.70
2018-06-27T23:49:54.001Z,98.10
2018-06-27T23:52:22.305Z,98.30
2018-06-27T23:54:50.612Z,98.30
2018-06-27T23:57:18.901Z,98.50
2018-06-27T23:59:47.241Z,98.80
